sensor_id;sensor_type;location;lat;lon;timestamp;pressure;altitude;pressure_sealevel;temperature;humidity
10145;BME280;5113;41.822;23.564;2022-08-19T00:01:24;-11427.94;;;17.83;100.00
10145;BME280;5113;41.822;23.564;2022-08-19T00:04:35;-11433.03;;;18.01;100.00
10145;BME280;5113;41.822;23.564;2022-08-19T00:07:42;-11432.75;;;18.00;100.00
10145;BME280;5113;41.822;23.564;2022-08-19T00:10:50;-11413.72;;;17.31;100.00
10145;BME280;5113;41.822;23.564;2022-08-19T00:13:57;-11408.63;;;17.13;100.00
10145;BME280;5113;41.822;23.564;2022-08-19T00:17:04;-11404.00;;;16.96;100.00
10145;BME280;5113;41.822;23.564;2022-08-19T00:20:14;-11404.13;;;16.97;100.00
10145;BME280;5113;41.822;23.564;2022-08-19T00:23:22;-11412.31;;;17.26;100.00
10145;BME280;5113;41.822;23.564;2022-08-19T00:26:29;-11404.56;;;16.98;100.00
10145;BME280;5113;41.822;23.564;2022-08-19T00:29:35;-11390.47;;;16.47;100.00
10145;BME280;5113;41.822;23.564;2022-08-19T00:32:42;-11391.88;;;16.52;100.00
10145;BME280;5113;41.822;23.564;2022-08-19T00:35:48;-11400.03;;;16.82;100.00
10145;BME280;5113;41.822;23.564;2022-08-19T00:39:00;-11379.91;;;16.09;100.00
10145;BME280;5113;41.822;23.564;2022-08-19T00:42:08;-11378.06;;;16.03;100.00
10145;BME280;5113;41.822;23.564;2022-08-19T00:45:18;-11378.75;;;16.05;100.00
10145;BME280;5113;41.822;23.564;2022-08-19T00:48:25;-11371.28;;;15.78;100.00
10145;BME280;5113;41.822;23.564;2022-08-19T00:51:31;-11369.59;;;15.72;100.00
10145;BME280;5113;41.822;23.564;2022-08-19T00:54:40;-11372.00;;;15.81;100.00
10145;BME280;5113;41.822;23.564;2022-08-19T00:57:49;-11389.03;;;16.42;100.00
10145;BME280;5113;41.822;23.564;2022-08-19T01:00:59;-11398.34;;;16.76;100.00
10145;BME280;5113;41.822;23.564;2022-08-19T01:04:06;-11403.56;;;16.95;100.00
10145;BME280;5113;41.822;23.564;2022-08-19T01:07:13;-11403.72;;;16.95;100.00
10145;BME280;5113;41.822;23.564;2022-08-19T01:10:25;-11408.63;;;17.13;100.00
10145;BME280;5113;41.822;23.564;2022-08-19T01:13:39;-11409.63;;;17.16;100.00
10145;BME280;5113;41.822;23.564;2022-08-19T01:16:55;-11407.38;;;17.08;100.00
10145;BME280;5113;41.822;23.564;2022-08-19T01:20:03;-11405.41;;;17.01;100.00
10145;BME280;5113;41.822;23.564;2022-08-19T01:23:12;-11402.56;;;16.91;100.00
10145;BME280;5113;41.822;23.564;2022-08-19T01:26:23;-11407.94;;;17.10;100.00
10145;BME280;5113;41.822;23.564;2022-08-19T01:29:30;-11403.16;;;16.93;100.00
10145;BME280;5113;41.822;23.564;2022-08-19T01:32:37;-11405.81;;;17.03;100.00
10145;BME280;5113;41.822;23.564;2022-08-19T01:35:43;-11380.88;;;16.13;100.00
10145;BME280;5113;41.822;23.564;2022-08-19T01:38:50;-11380.59;;;16.12;100.00
10145;BME280;5113;41.822;23.564;2022-08-19T01:41:57;-11375.38;;;15.93;100.00
10145;BME280;5113;41.822;23.564;2022-08-19T01:45:04;-11375.38;;;15.93;100.00
10145;BME280;5113;41.822;23.564;2022-08-19T01:48:10;-11376.94;;;15.99;100.00
10145;BME280;5113;41.822;23.564;2022-08-19T01:51:17;-11382.28;;;16.18;100.00
10145;BME280;5113;41.822;23.564;2022-08-19T01:54:25;-11374.97;;;15.92;100.00
10145;BME280;5113;41.822;23.564;2022-08-19T01:57:31;-11364.53;;;15.54;100.00
10145;BME280;5113;41.822;23.564;2022-08-19T02:00:39;-11377.34;;;16.00;100.00
10145;BME280;5113;41.822;23.564;2022-08-19T02:03:45;-11383.69;;;16.23;100.00
10145;BME280;5113;41.822;23.564;2022-08-19T02:06:52;-11381.03;;;16.13;100.00
10145;BME280;5113;41.822;23.564;2022-08-19T02:10:01;-11375.81;;;15.95;100.00
10145;BME280;5113;41.822;23.564;2022-08-19T02:13:16;-11351.72;;;15.08;100.00
10145;BME280;5113;41.822;23.564;2022-08-19T02:16:30;-11357.22;;;15.28;100.00
10145;BME280;5113;41.822;23.564;2022-08-19T02:19:37;-11360.03;;;15.38;100.00
10145;BME280;5113;41.822;23.564;2022-08-19T02:22:44;-11356.06;;;15.24;100.00
10145;BME280;5113;41.822;23.564;2022-08-19T02:25:52;-11356.06;;;15.24;100.00
10145;BME280;5113;41.822;23.564;2022-08-19T02:28:59;-11373.13;;;15.85;100.00
10145;BME280;5113;41.822;23.564;2022-08-19T02:32:06;-11359.19;;;15.35;100.00
10145;BME280;5113;41.822;23.564;2022-08-19T02:35:13;-11359.47;;;15.36;100.00
10145;BME280;5113;41.822;23.564;2022-08-19T02:38:20;-11344.53;;;14.82;100.00
10145;BME280;5113;41.822;23.564;2022-08-19T02:41:34;-11344.66;;;14.82;100.00
10145;BME280;5113;41.822;23.564;2022-08-19T02:44:40;-11345.53;;;14.85;100.00
10145;BME280;5113;41.822;23.564;2022-08-19T02:47:46;-11357.34;;;15.28;100.00
10145;BME280;5113;41.822;23.564;2022-08-19T02:50:54;-11360.59;;;15.40;100.00
10145;BME280;5113;41.822;23.564;2022-08-19T02:54:01;-11353.69;;;15.15;100.00
10145;BME280;5113;41.822;23.564;2022-08-19T02:57:09;-11360.88;;;15.41;100.00
10145;BME280;5113;41.822;23.564;2022-08-19T03:00:16;-11357.34;;;15.28;100.00
10145;BME280;5113;41.822;23.564;2022-08-19T03:03:23;-11363.41;;;15.50;100.00
10145;BME280;5113;41.822;23.564;2022-08-19T03:06:30;-11374.41;;;15.90;100.00
10145;BME280;5113;41.822;23.564;2022-08-19T03:09:37;-11379.03;;;16.06;100.00
10145;BME280;5113;41.822;23.564;2022-08-19T03:12:45;-11370.88;;;15.77;100.00
10145;BME280;5113;41.822;23.564;2022-08-19T03:15:52;-11382.00;;;16.17;100.00
10145;BME280;5113;41.822;23.564;2022-08-19T03:18:58;-11377.78;;;16.02;100.00
10145;BME280;5113;41.822;23.564;2022-08-19T03:22:05;-11340.16;;;14.66;100.00
10145;BME280;5113;41.822;23.564;2022-08-19T03:25:12;-11335.22;;;14.48;100.00
10145;BME280;5113;41.822;23.564;2022-08-19T03:28:21;-11339.87;;;14.65;100.00
10145;BME280;5113;41.822;23.564;2022-08-19T03:31:28;-11335.50;;;14.49;100.00
10145;BME280;5113;41.822;23.564;2022-08-19T03:34:55;-11327.34;;;14.20;100.00
10145;BME280;5113;41.822;23.564;2022-08-19T03:38:02;-11319.87;;;13.93;100.00
10145;BME280;5113;41.822;23.564;2022-08-19T03:41:10;-11315.53;;;13.77;100.00
10145;BME280;5113;41.822;23.564;2022-08-19T03:44:20;-11319.19;;;13.91;100.00
10145;BME280;5113;41.822;23.564;2022-08-19T03:47:26;-11323.25;;;14.05;100.00
10145;BME280;5113;41.822;23.564;2022-08-19T03:50:33;-11332.84;;;14.40;100.00
10145;BME280;5113;41.822;23.564;2022-08-19T03:53:44;-11328.91;;;14.26;100.00
10145;BME280;5113;41.822;23.564;2022-08-19T03:56:52;-11332.13;;;14.37;100.00
10145;BME280;5113;41.822;23.564;2022-08-19T04:00:00;-11363.25;;;15.49;100.00
10145;BME280;5113;41.822;23.564;2022-08-19T04:03:17;-11377.50;;;16.01;100.00
10145;BME280;5113;41.822;23.564;2022-08-19T04:06:27;-11375.09;;;15.92;100.00
10145;BME280;5113;41.822;23.564;2022-08-19T04:09:35;-11368.75;;;15.69;100.00
10145;BME280;5113;41.822;23.564;2022-08-19T04:12:42;-11352.13;;;15.09;100.00
10145;BME280;5113;41.822;23.564;2022-08-19T04:15:50;-11369.03;;;15.70;100.00
10145;BME280;5113;41.822;23.564;2022-08-19T04:18:56;-11359.59;;;15.36;100.00
10145;BME280;5113;41.822;23.564;2022-08-19T04:22:05;-11340.03;;;14.66;100.00
10145;BME280;5113;41.822;23.564;2022-08-19T04:25:13;-11344.53;;;14.82;100.00
10145;BME280;5113;41.822;23.564;2022-08-19T04:28:19;-11346.78;;;14.90;100.00
10145;BME280;5113;41.822;23.564;2022-08-19T04:31:30;-11344.53;;;14.82;100.00
10145;BME280;5113;41.822;23.564;2022-08-19T04:34:37;-11365.38;;;15.57;100.00
10145;BME280;5113;41.822;23.564;2022-08-19T04:38:04;-11356.22;;;15.24;100.00
10145;BME280;5113;41.822;23.564;2022-08-19T04:41:11;-11360.88;;;15.41;100.00
10145;BME280;5113;41.822;23.564;2022-08-19T04:44:35;-11373.84;;;15.88;100.00
10145;BME280;5113;41.822;23.564;2022-08-19T04:47:55;-11382.84;;;16.20;100.00
10145;BME280;5113;41.822;23.564;2022-08-19T04:51:22;-11372.16;;;15.81;100.00
10145;BME280;5113;41.822;23.564;2022-08-19T04:54:29;-11383.69;;;16.23;100.00
10145;BME280;5113;41.822;23.564;2022-08-19T04:57:43;-11395.53;;;16.66;100.00
10145;BME280;5113;41.822;23.564;2022-08-19T05:00:49;-11399.19;;;16.79;100.00
10145;BME280;5113;41.822;23.564;2022-08-19T05:03:57;-11385.38;;;16.29;100.00
10145;BME280;5113;41.822;23.564;2022-08-19T05:07:06;-11384.81;;;16.27;100.00
10145;BME280;5113;41.822;23.564;2022-08-19T05:10:12;-11412.16;;;17.26;100.00
10145;BME280;5113;41.822;23.564;2022-08-19T05:13:19;-11420.34;;;17.55;100.00
10145;BME280;5113;41.822;23.564;2022-08-19T05:16:26;-11417.78;;;17.46;100.00
10145;BME280;5113;41.822;23.564;2022-08-19T05:19:34;-11418.66;;;17.49;100.00
10145;BME280;5113;41.822;23.564;2022-08-19T05:22:57;-11428.53;;;17.85;100.00
10145;BME280;5113;41.822;23.564;2022-08-19T05:26:04;-11439.78;;;18.25;100.00
10145;BME280;5113;41.822;23.564;2022-08-19T05:29:10;-11443.19;;;18.37;100.00
10145;BME280;5113;41.822;23.564;2022-08-19T05:32:16;-11443.03;;;18.37;100.00
10145;BME280;5113;41.822;23.564;2022-08-19T05:35:24;-11459.53;;;18.96;100.00
10145;BME280;5113;41.822;23.564;2022-08-19T05:38:30;-11470.81;;;19.37;100.00
10145;BME280;5113;41.822;23.564;2022-08-19T05:41:41;-11474.47;;;19.50;100.00
10145;BME280;5113;41.822;23.564;2022-08-19T05:44:48;-11482.09;;;19.77;98.23
10145;BME280;5113;41.822;23.564;2022-08-19T05:47:54;-11492.53;;;20.15;96.51
10145;BME280;5113;41.822;23.564;2022-08-19T05:51:05;-11505.78;;;20.63;94.39
10145;BME280;5113;41.822;23.564;2022-08-19T05:54:13;-11507.06;;;20.67;93.31
10145;BME280;5113;41.822;23.564;2022-08-19T05:57:19;-11517.34;;;21.04;91.20
10145;BME280;5113;41.822;23.564;2022-08-19T06:00:26;-11512.00;;;20.85;87.52
10145;BME280;5113;41.822;23.564;2022-08-19T06:03:32;-11516.78;;;21.02;87.06
10145;BME280;5113;41.822;23.564;2022-08-19T06:06:40;-11518.78;;;21.09;84.69
10145;BME280;5113;41.822;23.564;2022-08-19T06:09:46;-11520.75;;;21.17;84.52
10145;BME280;5113;41.822;23.564;2022-08-19T06:13:04;-11530.19;;;21.51;81.70
10145;BME280;5113;41.822;23.564;2022-08-19T06:16:10;-11530.91;;;21.53;81.41
10145;BME280;5113;41.822;23.564;2022-08-19T06:19:19;-11524.41;;;21.30;82.79
10145;BME280;5113;41.822;23.564;2022-08-19T06:22:27;-11522.72;;;21.24;83.85
10145;BME280;5113;41.822;23.564;2022-08-19T06:25:34;-11525.25;;;21.33;81.23
10145;BME280;5113;41.822;23.564;2022-08-19T06:32:06;-11538.09;;;21.79;80.38
10145;BME280;5113;41.822;23.564;2022-08-19T06:35:12;-11530.63;;;21.52;80.82
10145;BME280;5113;41.822;23.564;2022-08-19T06:38:20;-11555.19;;;22.40;74.25
10145;BME280;5113;41.822;23.564;2022-08-19T06:41:28;-11562.94;;;22.68;72.81
10145;BME280;5113;41.822;23.564;2022-08-19T06:44:36;-11577.75;;;23.22;72.47
10145;BME280;5113;41.822;23.564;2022-08-19T06:47:47;-11583.53;;;23.43;70.89
10145;BME280;5113;41.822;23.564;2022-08-19T06:50:53;-11580.00;;;23.30;71.90
10145;BME280;5113;41.822;23.564;2022-08-19T06:54:02;-11590.19;;;23.66;68.52
10145;BME280;5113;41.822;23.564;2022-08-19T06:57:08;-11591.88;;;23.73;67.33
10145;BME280;5113;41.822;23.564;2022-08-19T07:00:20;-11602.75;;;24.12;66.71
10145;BME280;5113;41.822;23.564;2022-08-19T07:03:28;-11599.22;;;23.99;64.65
10145;BME280;5113;41.822;23.564;2022-08-19T07:06:36;-11610.50;;;24.40;64.00
10145;BME280;5113;41.822;23.564;2022-08-19T07:09:50;-11613.75;;;24.51;63.96
10145;BME280;5113;41.822;23.564;2022-08-19T07:13:04;-11609.53;;;24.36;59.88
10145;BME280;5113;41.822;23.564;2022-08-19T07:16:12;-11619.81;;;24.73;61.18
10145;BME280;5113;41.822;23.564;2022-08-19T07:19:26;-11618.41;;;24.68;58.95
10145;BME280;5113;41.822;23.564;2022-08-19T07:22:33;-11633.81;;;25.23;58.22
10145;BME280;5113;41.822;23.564;2022-08-19T07:25:41;-11645.81;;;25.66;54.95
10145;BME280;5113;41.822;23.564;2022-08-19T07:28:49;-11640.72;;;25.48;55.68
10145;BME280;5113;41.822;23.564;2022-08-19T07:31:57;-11640.72;;;25.48;55.07
10145;BME280;5113;41.822;23.564;2022-08-19T07:35:05;-11654.41;;;25.97;53.74
10145;BME280;5113;41.822;23.564;2022-08-19T07:38:11;-11655.25;;;26.00;53.88
10145;BME280;5113;41.822;23.564;2022-08-19T07:41:23;-11658.50;;;26.12;53.17
10145;BME280;5113;41.822;23.564;2022-08-19T07:44:30;-11670.94;;;26.57;51.70
10145;BME280;5113;41.822;23.564;2022-08-19T07:47:39;-11667.84;;;26.46;51.32
10145;BME280;5113;41.822;23.564;2022-08-19T07:50:56;-11659.63;;;26.16;51.06
10145;BME280;5113;41.822;23.564;2022-08-19T07:54:03;-11669.66;;;26.52;50.07
10145;BME280;5113;41.822;23.564;2022-08-19T07:57:11;-11687.59;;;27.17;49.02
10145;BME280;5113;41.822;23.564;2022-08-19T08:00:18;-11702.31;;;27.70;47.83
10145;BME280;5113;41.822;23.564;2022-08-19T08:03:28;-11705.97;;;27.83;48.52
10145;BME280;5113;41.822;23.564;2022-08-19T08:06:49;-11703.28;;;27.73;48.55
10145;BME280;5113;41.822;23.564;2022-08-19T08:10:12;-11706.38;;;27.84;47.04
10145;BME280;5113;41.822;23.564;2022-08-19T08:13:27;-11734.94;;;28.87;46.79
10145;BME280;5113;41.822;23.564;2022-08-19T08:16:35;-11728.56;;;28.64;45.58
10145;BME280;5113;41.822;23.564;2022-08-19T08:19:50;-11715.84;;;28.18;45.65
10145;BME280;5113;41.822;23.564;2022-08-19T08:22:56;-11728.00;;;28.62;45.23
10145;BME280;5113;41.822;23.564;2022-08-19T08:26:20;-11743.41;;;29.17;44.79
10145;BME280;5113;41.822;23.564;2022-08-19T08:29:30;-11720.09;;;28.34;46.16
10145;BME280;5113;41.822;23.564;2022-08-19T08:32:39;-11728.16;;;28.63;45.98
10145;BME280;5113;41.822;23.564;2022-08-19T08:35:46;-11743.13;;;29.16;44.78
10145;BME280;5113;41.822;23.564;2022-08-19T08:38:52;-11755.69;;;29.62;43.65
10145;BME280;5113;41.822;23.564;2022-08-19T08:42:07;-11757.38;;;29.68;42.88
10145;BME280;5113;41.822;23.564;2022-08-19T08:45:24;-11745.81;;;29.26;43.13
10145;BME280;5113;41.822;23.564;2022-08-19T08:48:40;-11748.63;;;29.36;43.43
10145;BME280;5113;41.822;23.564;2022-08-19T08:52:00;-11760.50;;;29.79;41.99
10145;BME280;5113;41.822;23.564;2022-08-19T08:55:14;-11762.34;;;29.85;42.87
10145;BME280;5113;41.822;23.564;2022-08-19T08:58:27;-11762.19;;;29.85;41.92
10145;BME280;5113;41.822;23.564;2022-08-19T09:01:37;-11757.66;;;29.69;40.81
10145;BME280;5113;41.822;23.564;2022-08-19T09:04:44;-11784.09;;;30.64;39.49
10145;BME280;5113;41.822;23.564;2022-08-19T09:07:58;-11780.28;;;30.50;39.45
10145;BME280;5113;41.822;23.564;2022-08-19T09:11:10;-11766.72;;;30.01;39.09
10145;BME280;5113;41.822;23.564;2022-08-19T09:14:43;-11791.16;;;30.89;37.66
10145;BME280;5113;41.822;23.564;2022-08-19T09:18:00;-11796.38;;;31.08;39.34
10145;BME280;5113;41.822;23.564;2022-08-19T09:21:10;-11801.47;;;31.26;38.14
10145;BME280;5113;41.822;23.564;2022-08-19T09:24:17;-11806.13;;;31.43;37.77
10145;BME280;5113;41.822;23.564;2022-08-19T09:27:24;-11816.75;;;31.81;36.64
10145;BME280;5113;41.822;23.564;2022-08-19T09:30:47;-11814.19;;;31.72;35.67
10145;BME280;5113;41.822;23.564;2022-08-19T09:33:58;-11802.59;;;31.30;36.08
10145;BME280;5113;41.822;23.564;2022-08-19T09:37:05;-11812.06;;;31.64;35.87
10145;BME280;5113;41.822;23.564;2022-08-19T09:40:14;-11814.63;;;31.73;35.57
10145;BME280;5113;41.822;23.564;2022-08-19T09:43:20;-11821.81;;;31.99;35.05
10145;BME280;5113;41.822;23.564;2022-08-19T09:46:37;-11832.41;;;32.37;36.13
10145;BME280;5113;41.822;23.564;2022-08-19T09:49:44;-11830.72;;;32.31;34.37
10145;BME280;5113;41.822;23.564;2022-08-19T09:52:52;-11835.38;;;32.48;34.15
10145;BME280;5113;41.822;23.564;2022-08-19T09:56:02;-11837.94;;;32.57;33.93
10145;BME280;5113;41.822;23.564;2022-08-19T09:59:09;-11833.69;;;32.42;34.93
10145;BME280;5113;41.822;23.564;2022-08-19T10:02:16;-11831.44;;;32.34;33.66
10145;BME280;5113;41.822;23.564;2022-08-19T10:05:27;-11841.59;;;32.70;33.41
10145;BME280;5113;41.822;23.564;2022-08-19T10:08:52;-11858.44;;;33.31;33.87
10145;BME280;5113;41.822;23.564;2022-08-19T10:11:59;-11874.69;;;33.89;32.29
10145;BME280;5113;41.822;23.564;2022-08-19T10:15:07;-11860.84;;;33.39;32.82
10145;BME280;5113;41.822;23.564;2022-08-19T10:18:14;-11850.22;;;33.01;32.54
10145;BME280;5113;41.822;23.564;2022-08-19T10:21:26;-11859.00;;;33.33;31.59
10145;BME280;5113;41.822;23.564;2022-08-19T10:24:35;-11846.13;;;32.87;31.13
10145;BME280;5113;41.822;23.564;2022-08-19T10:27:42;-11878.34;;;34.02;31.04
10145;BME280;5113;41.822;23.564;2022-08-19T10:30:54;-11873.28;;;33.84;29.32
10145;BME280;5113;41.822;23.564;2022-08-19T10:34:00;-11884.28;;;34.24;29.75
10145;BME280;5113;41.822;23.564;2022-08-19T10:37:08;-11880.06;;;34.08;30.29
10145;BME280;5113;41.822;23.564;2022-08-19T10:40:18;-11892.78;;;34.54;29.03
10145;BME280;5113;41.822;23.564;2022-08-19T10:43:24;-11886.56;;;34.32;30.32
10145;BME280;5113;41.822;23.564;2022-08-19T10:46:32;-11875.81;;;33.93;29.79
10145;BME280;5113;41.822;23.564;2022-08-19T10:49:39;-11887.13;;;34.34;29.33
10145;BME280;5113;41.822;23.564;2022-08-19T10:53:04;-11890.22;;;34.45;28.99
10145;BME280;5113;41.822;23.564;2022-08-19T10:56:13;-11881.75;;;34.15;28.32
10145;BME280;5113;41.822;23.564;2022-08-19T10:59:37;-11872.41;;;33.81;28.94
10145;BME280;5113;41.822;23.564;2022-08-19T11:02:44;-11890.78;;;34.47;29.20
10145;BME280;5113;41.822;23.564;2022-08-19T11:05:58;-11893.19;;;34.56;29.20
10145;BME280;5113;41.822;23.564;2022-08-19T11:09:07;-11881.75;;;34.15;30.33
10145;BME280;5113;41.822;23.564;2022-08-19T11:12:13;-11871.72;;;33.78;30.65
10145;BME280;5113;41.822;23.564;2022-08-19T11:15:20;-11898.72;;;34.75;30.60
10145;BME280;5113;41.822;23.564;2022-08-19T11:18:27;-11874.97;;;33.90;31.73
10145;BME280;5113;41.822;23.564;2022-08-19T11:21:35;-11873.41;;;33.85;31.69
10145;BME280;5113;41.822;23.564;2022-08-19T11:24:43;-11867.63;;;33.64;32.00
10145;BME280;5113;41.822;23.564;2022-08-19T11:27:49;-11877.66;;;34.00;31.30
10145;BME280;5113;41.822;23.564;2022-08-19T11:30:57;-11859.69;;;33.35;32.17
10145;BME280;5113;41.822;23.564;2022-08-19T11:34:05;-11879.34;;;34.06;31.63
10145;BME280;5113;41.822;23.564;2022-08-19T11:37:11;-11868.59;;;33.67;31.39
10145;BME280;5113;41.822;23.564;2022-08-19T11:40:19;-11882.59;;;34.18;30.04
10145;BME280;5113;41.822;23.564;2022-08-19T11:43:25;-11880.19;;;34.09;31.95
10145;BME280;5113;41.822;23.564;2022-08-19T11:46:33;-11879.78;;;34.07;31.18
10145;BME280;5113;41.822;23.564;2022-08-19T11:49:39;-11887.81;;;34.36;31.13
10145;BME280;5113;41.822;23.564;2022-08-19T11:52:47;-11874.41;;;33.88;31.82
10145;BME280;5113;41.822;23.564;2022-08-19T11:55:55;-11883.00;;;34.19;32.02
10145;BME280;5113;41.822;23.564;2022-08-19T11:59:02;-11874.13;;;33.87;31.50
10145;BME280;5113;41.822;23.564;2022-08-19T12:02:09;-11873.84;;;33.86;32.10
10145;BME280;5113;41.822;23.564;2022-08-19T12:05:16;-11887.69;;;34.36;31.00
10145;BME280;5113;41.822;23.564;2022-08-19T12:08:23;-11889.38;;;34.42;31.05
10145;BME280;5113;41.822;23.564;2022-08-19T12:11:30;-11871.72;;;33.78;32.14
10145;BME280;5113;41.822;23.564;2022-08-19T12:14:38;-11866.19;;;33.59;32.33
10145;BME280;5113;41.822;23.564;2022-08-19T12:17:45;-11876.66;;;33.96;32.12
10145;BME280;5113;41.822;23.564;2022-08-19T12:20:52;-11872.13;;;33.80;31.28
10145;BME280;5113;41.822;23.564;2022-08-19T12:24:02;-11872.00;;;33.79;32.40
10145;BME280;5113;41.822;23.564;2022-08-19T12:27:11;-11877.22;;;33.98;31.49
10145;BME280;5113;41.822;23.564;2022-08-19T12:30:37;-11882.03;;;34.16;30.83
10145;BME280;5113;41.822;23.564;2022-08-19T12:33:44;-11882.03;;;34.16;31.20
10145;BME280;5113;41.822;23.564;2022-08-19T12:36:50;-11902.94;;;34.91;30.27
10145;BME280;5113;41.822;23.564;2022-08-19T12:39:56;-11883.44;;;34.21;31.23
10145;BME280;5113;41.822;23.564;2022-08-19T12:43:04;-11887.97;;;34.37;30.75
10145;BME280;5113;41.822;23.564;2022-08-19T12:46:11;-11894.75;;;34.61;31.04
10145;BME280;5113;41.822;23.564;2022-08-19T12:49:22;-11917.38;;;35.42;30.77
10145;BME280;5113;41.822;23.564;2022-08-19T12:52:49;-11874.25;;;33.88;30.97
10145;BME280;5113;41.822;23.564;2022-08-19T12:55:56;-11894.19;;;34.59;30.68
10145;BME280;5113;41.822;23.564;2022-08-19T12:59:04;-11880.19;;;34.09;31.16
10145;BME280;5113;41.822;23.564;2022-08-19T13:02:12;-11892.91;;;34.55;30.64
10145;BME280;5113;41.822;23.564;2022-08-19T13:05:21;-11901.81;;;34.87;30.43
10145;BME280;5113;41.822;23.564;2022-08-19T13:08:28;-11907.91;;;35.08;30.90
10145;BME280;5113;41.822;23.564;2022-08-19T13:11:35;-11899.56;;;34.78;30.05
10145;BME280;5113;41.822;23.564;2022-08-19T13:14:44;-11906.34;;;35.03;30.06
10145;BME280;5113;41.822;23.564;2022-08-19T13:17:52;-11878.06;;;34.01;31.35
10145;BME280;5113;41.822;23.564;2022-08-19T13:21:02;-11883.44;;;34.21;31.25
10145;BME280;5113;41.822;23.564;2022-08-19T13:24:09;-11898.00;;;34.73;30.65
10145;BME280;5113;41.822;23.564;2022-08-19T13:27:16;-11904.38;;;34.96;30.77
10145;BME280;5113;41.822;23.564;2022-08-19T13:30:24;-11906.91;;;35.05;30.66
10145;BME280;5113;41.822;23.564;2022-08-19T13:33:47;-11899.12;;;34.77;30.62
10145;BME280;5113;41.822;23.564;2022-08-19T13:36:54;-11892.91;;;34.55;31.08
10145;BME280;5113;41.822;23.564;2022-08-19T13:40:00;-11887.69;;;34.36;31.04
10145;BME280;5113;41.822;23.564;2022-08-19T13:43:08;-11889.94;;;34.44;30.98
10145;BME280;5113;41.822;23.564;2022-08-19T13:46:28;-11888.09;;;34.37;30.88
10145;BME280;5113;41.822;23.564;2022-08-19T13:49:35;-11910.72;;;35.19;30.54
10145;BME280;5113;41.822;23.564;2022-08-19T13:52:42;-11896.72;;;34.68;30.22
10145;BME280;5113;41.822;23.564;2022-08-19T13:55:48;-11896.44;;;34.67;30.71
10145;BME280;5113;41.822;23.564;2022-08-19T13:58:55;-11901.25;;;34.85;30.13
10145;BME280;5113;41.822;23.564;2022-08-19T14:02:04;-11880.75;;;34.11;31.31
10145;BME280;5113;41.822;23.564;2022-08-19T14:05:12;-11897.56;;;34.71;30.96
10145;BME280;5113;41.822;23.564;2022-08-19T14:08:19;-11886.56;;;34.32;31.75
10145;BME280;5113;41.822;23.564;2022-08-19T14:11:25;-11886.97;;;34.33;31.35
10145;BME280;5113;41.822;23.564;2022-08-19T14:14:36;-11889.38;;;34.42;30.96
10145;BME280;5113;41.822;23.564;2022-08-19T14:17:44;-11884.00;;;34.23;31.72
10145;BME280;5113;41.822;23.564;2022-08-19T14:20:53;-11901.25;;;34.85;31.33
10145;BME280;5113;41.822;23.564;2022-08-19T14:24:03;-11895.03;;;34.62;31.38
10145;BME280;5113;41.822;23.564;2022-08-19T14:27:09;-11890.09;;;34.44;32.11
10145;BME280;5113;41.822;23.564;2022-08-19T14:30:18;-11892.63;;;34.54;32.27
10145;BME280;5113;41.822;23.564;2022-08-19T14:33:26;-11887.81;;;34.36;32.14
10145;BME280;5113;41.822;23.564;2022-08-19T14:36:34;-11889.66;;;34.43;32.19
10145;BME280;5113;41.822;23.564;2022-08-19T14:39:43;-11886.84;;;34.33;32.76
10145;BME280;5113;41.822;23.564;2022-08-19T14:42:50;-11896.88;;;34.69;31.98
10145;BME280;5113;41.822;23.564;2022-08-19T14:45:56;-11894.63;;;34.61;31.84
10145;BME280;5113;41.822;23.564;2022-08-19T14:49:04;-11904.09;;;34.95;31.47
10145;BME280;5113;41.822;23.564;2022-08-19T14:52:13;-11874.97;;;33.90;33.11
10145;BME280;5113;41.822;23.564;2022-08-19T14:55:19;-11891.66;;;34.50;32.03
10145;BME280;5113;41.822;23.564;2022-08-19T14:58:26;-11878.34;;;34.02;32.42
10145;BME280;5113;41.822;23.564;2022-08-19T15:01:34;-11889.94;;;34.44;32.15
10145;BME280;5113;41.822;23.564;2022-08-19T15:04:42;-11885.28;;;34.27;32.31
10145;BME280;5113;41.822;23.564;2022-08-19T15:07:49;-11867.03;;;33.62;33.10
10145;BME280;5113;41.822;23.564;2022-08-19T15:10:56;-11870.16;;;33.73;33.50
10145;BME280;5113;41.822;23.564;2022-08-19T15:14:02;-11859.69;;;33.35;32.70
10145;BME280;5113;41.822;23.564;2022-08-19T15:17:10;-11852.34;;;33.09;33.48
10145;BME280;5113;41.822;23.564;2022-08-19T15:20:19;-11854.19;;;33.15;33.87
10145;BME280;5113;41.822;23.564;2022-08-19T15:23:27;-11836.81;;;32.53;34.55
10145;BME280;5113;41.822;23.564;2022-08-19T15:26:34;-11831.00;;;32.32;34.80
10145;BME280;5113;41.822;23.564;2022-08-19T15:29:40;-11832.56;;;32.38;34.71
10145;BME280;5113;41.822;23.564;2022-08-19T15:32:47;-11831.56;;;32.34;34.95
10145;BME280;5113;41.822;23.564;2022-08-19T15:35:55;-11843.16;;;32.76;34.48
10145;BME280;5113;41.822;23.564;2022-08-19T15:39:02;-11833.00;;;32.39;34.94
10145;BME280;5113;41.822;23.564;2022-08-19T15:42:09;-11827.47;;;32.20;35.03
10145;BME280;5113;41.822;23.564;2022-08-19T15:45:21;-11828.31;;;32.23;35.25
10145;BME280;5113;41.822;23.564;2022-08-19T15:48:36;-11822.94;;;32.03;35.70
10145;BME280;5113;41.822;23.564;2022-08-19T15:51:46;-11821.53;;;31.98;35.19
10145;BME280;5113;41.822;23.564;2022-08-19T15:54:53;-11822.81;;;32.03;35.48
10145;BME280;5113;41.822;23.564;2022-08-19T15:58:00;-11815.31;;;31.76;35.83
10145;BME280;5113;41.822;23.564;2022-08-19T16:01:33;-11817.31;;;31.83;35.73
10145;BME280;5113;41.822;23.564;2022-08-19T16:04:58;-11818.00;;;31.85;36.19
10145;BME280;5113;41.822;23.564;2022-08-19T16:08:23;-11807.97;;;31.49;36.58
10145;BME280;5113;41.822;23.564;2022-08-19T16:11:31;-11804.88;;;31.38;36.88
10145;BME280;5113;41.822;23.564;2022-08-19T16:14:43;-11803.03;;;31.32;36.79
10145;BME280;5113;41.822;23.564;2022-08-19T16:17:51;-11796.38;;;31.08;38.04
10145;BME280;5113;41.822;23.564;2022-08-19T16:21:01;-11796.66;;;31.09;37.66
10145;BME280;5113;41.822;23.564;2022-08-19T16:24:11;-11796.25;;;31.07;37.44
10145;BME280;5113;41.822;23.564;2022-08-19T16:27:18;-11795.25;;;31.04;37.89